createdAt,value
2022-10-02T00:01:56.576Z,10.60
2022-10-02T00:06:51.017Z,10.60
2022-10-02T00:11:46.851Z,10.50
2022-10-02T00:16:43.318Z,10.50
2022-10-02T00:21:48.534Z,10.50
2022-10-02T00:26:42.766Z,10.40
2022-10-02T00:31:53.772Z,10.30
2022-10-02T00:37:05.944Z,10.30
2022-10-02T00:42:24.194Z,10.50
2022-10-02T00:47:50.325Z,10.40
2022-10-02T00:52:55.711Z,10.50
2022-10-02T00:58:33.298Z,10.50
2022-10-02T01:03:34.624Z,10.40
2022-10-02T01:08:28.074Z,10.50
2022-10-02T01:13:20.865Z,10.50
2022-10-02T01:18:14.442Z,10.40
2022-10-02T01:23:33.105Z,10.40
2022-10-02T01:28:25.846Z,10.40
2022-10-02T01:33:18.792Z,10.40
2022-10-02T01:38:15.395Z,10.50
2022-10-02T01:43:14.885Z,10.50
2022-10-02T01:48:43.765Z,10.50
2022-10-02T01:53:50.736Z,10.40
2022-10-02T01:58:47.831Z,10.40
2022-10-02T02:04:04.460Z,10.40
2022-10-02T02:09:01.822Z,10.40
2022-10-02T02:14:17.027Z,10.40
2022-10-02T02:19:15.036Z,10.30
2022-10-02T02:24:18.690Z,10.30
2022-10-02T02:29:13.033Z,10.30
2022-10-02T02:34:11.741Z,10.30
2022-10-02T02:39:10.615Z,10.30
2022-10-02T02:44:16.692Z,10.30
2022-10-02T02:49:13.192Z,10.20
2022-10-02T02:54:16.017Z,10.20
2022-10-02T02:59:10.259Z,10.20
2022-10-02T03:04:02.944Z,10.20
2022-10-02T03:08:55.480Z,10.20
2022-10-02T03:14:18.656Z,10.30
2022-10-02T03:19:32.158Z,10.40
2022-10-02T03:24:30.217Z,10.60
2022-10-02T03:29:35.341Z,10.70
2022-10-02T03:34:28.312Z,10.90
2022-10-02T03:39:25.229Z,11.10
2022-10-02T03:44:18.308Z,11.20
2022-10-02T03:49:10.464Z,11.20
2022-10-02T03:54:03.931Z,11.20
2022-10-02T03:58:59.980Z,11.00
2022-10-02T04:04:04.645Z,10.80
2022-10-02T04:09:12.508Z,10.70
2022-10-02T04:14:28.209Z,10.50
2022-10-02T04:19:33.886Z,10.40
2022-10-02T04:24:45.010Z,10.30
2022-10-02T04:30:11.767Z,10.20
2022-10-02T04:35:18.067Z,10.20
2022-10-02T04:40:13.100Z,10.20
2022-10-02T04:45:17.745Z,10.20
2022-10-02T04:50:29.030Z,10.20
2022-10-02T04:55:38.495Z,10.20
2022-10-02T05:00:45.740Z,10.30
2022-10-02T05:05:43.731Z,10.30
2022-10-02T05:11:05.136Z,10.30
2022-10-02T05:16:12.568Z,10.20
2022-10-02T05:21:19.611Z,10.20
2022-10-02T05:26:25.742Z,10.30
2022-10-02T05:31:30.733Z,10.40
2022-10-02T05:36:36.219Z,10.60
2022-10-02T05:41:34.884Z,10.80
2022-10-02T05:46:32.946Z,11.20
2022-10-02T05:51:52.009Z,11.90
2022-10-02T05:56:52.175Z,12.30
2022-10-02T06:01:50.058Z,12.30
2022-10-02T06:06:57.008Z,12.50
2022-10-02T06:12:00.088Z,12.70
2022-10-02T06:17:03.203Z,12.80
2022-10-02T06:22:14.148Z,12.80
2022-10-02T06:27:26.177Z,13.10
2022-10-02T06:32:55.871Z,13.20
2022-10-02T06:37:56.832Z,13.50
2022-10-02T06:43:18.295Z,13.60
2022-10-02T06:48:41.162Z,13.70
2022-10-02T06:53:49.530Z,14.00
2022-10-02T06:59:30.489Z,18.20
2022-10-02T07:04:32.533Z,23.00
2022-10-02T07:09:44.144Z,26.60
2022-10-02T07:14:55.770Z,28.40
2022-10-02T07:19:53.480Z,26.90
2022-10-02T07:25:10.458Z,23.90
2022-10-02T07:30:12.715Z,23.10
2022-10-02T07:35:35.608Z,26.20
2022-10-02T07:40:59.911Z,28.80
2022-10-02T07:46:01.965Z,27.50
2022-10-02T07:50:57.657Z,25.30
2022-10-02T07:55:53.986Z,24.00
2022-10-02T08:00:50.975Z,22.50
2022-10-02T08:05:48.743Z,21.60
2022-10-02T08:10:47.526Z,21.20
2022-10-02T08:15:42.785Z,21.00
2022-10-02T08:20:39.789Z,20.90
2022-10-02T08:25:39.862Z,20.40
2022-10-02T08:30:32.491Z,20.20
2022-10-02T08:35:42.435Z,20.10
2022-10-02T08:40:50.219Z,19.70
2022-10-02T08:46:47.002Z,19.60
2022-10-02T08:52:17.180Z,19.30
2022-10-02T08:57:39.715Z,19.20
2022-10-02T09:02:36.558Z,19.50
2022-10-02T09:07:31.904Z,20.30
2022-10-02T09:12:46.224Z,20.50
2022-10-02T09:18:10.270Z,20.90
2022-10-02T09:23:21.718Z,21.30
2022-10-02T09:28:38.882Z,21.00
2022-10-02T09:34:10.318Z,21.00
2022-10-02T09:39:14.859Z,22.00
2022-10-02T09:44:44.213Z,23.40
2022-10-02T09:50:18.158Z,22.70
2022-10-02T09:55:21.509Z,21.30
2022-10-02T10:00:20.125Z,21.00
2022-10-02T10:05:24.658Z,21.30
2022-10-02T10:10:39.104Z,22.10
2022-10-02T10:15:46.984Z,25.80
2022-10-02T10:21:04.164Z,28.80
2022-10-02T10:26:51.463Z,30.50
2022-10-02T10:32:02.789Z,30.70
2022-10-02T10:37:27.048Z,29.00
2022-10-02T10:43:03.068Z,27.60
2022-10-02T10:48:19.878Z,25.90
2022-10-02T10:53:35.795Z,25.30
2022-10-02T10:58:34.259Z,24.90
2022-10-02T11:03:47.342Z,24.00
2022-10-02T11:09:26.847Z,23.00
2022-10-02T11:14:41.063Z,22.10
2022-10-02T11:19:41.412Z,21.40
2022-10-02T11:25:13.254Z,21.20
2022-10-02T11:30:24.215Z,21.30
2022-10-02T11:35:40.094Z,21.30
2022-10-02T11:41:02.521Z,21.30
2022-10-02T11:46:12.291Z,21.20
2022-10-02T11:51:31.468Z,21.50
2022-10-02T11:56:36.554Z,22.20
2022-10-02T12:01:53.856Z,21.90
2022-10-02T12:06:59.531Z,21.70
2022-10-02T12:12:17.232Z,21.70
2022-10-02T12:17:36.425Z,21.50
2022-10-02T12:23:04.131Z,21.30
2022-10-02T12:28:15.669Z,21.20
2022-10-02T12:33:27.651Z,21.10
2022-10-02T12:38:23.244Z,21.30
2022-10-02T12:43:57.632Z,21.40
2022-10-02T12:49:25.550Z,21.10
2022-10-02T12:54:50.957Z,20.70
2022-10-02T12:59:59.329Z,20.50
2022-10-02T13:05:13.385Z,20.40
2022-10-02T13:10:29.705Z,20.30
2022-10-02T13:16:04.724Z,20.20
2022-10-02T13:21:10.730Z,20.00
2022-10-02T13:26:14.034Z,19.90
2022-10-02T13:31:36.890Z,20.30
2022-10-02T13:37:12.546Z,20.80
2022-10-02T13:42:44.595Z,20.90
2022-10-02T13:47:49.544Z,20.30
2022-10-02T13:52:45.766Z,19.80
2022-10-02T13:57:53.126Z,19.90
2022-10-02T14:03:38.105Z,19.90
2022-10-02T14:08:54.368Z,19.70
2022-10-02T14:14:11.374Z,19.50
2022-10-02T14:19:41.145Z,19.50
2022-10-02T14:24:55.016Z,19.30
2022-10-02T14:30:12.047Z,19.00
2022-10-02T14:35:11.879Z,18.50
2022-10-02T14:40:30.361Z,16.80
2022-10-02T14:45:57.567Z,16.20
2022-10-02T14:51:37.490Z,15.90
2022-10-02T14:56:33.335Z,15.80
2022-10-02T15:01:32.287Z,15.80
2022-10-02T15:06:53.800Z,15.80
2022-10-02T15:12:21.327Z,15.80
2022-10-02T15:18:00.551Z,15.80
2022-10-02T15:23:03.567Z,15.70
2022-10-02T15:28:35.277Z,15.60
2022-10-02T15:33:57.836Z,15.50
2022-10-02T15:39:16.115Z,15.50
2022-10-02T15:44:28.653Z,15.40
2022-10-02T15:49:40.967Z,15.40
2022-10-02T15:54:51.867Z,15.30
2022-10-02T16:00:02.199Z,15.20
2022-10-02T16:05:32.043Z,15.10
2022-10-02T16:10:36.514Z,15.00
2022-10-02T16:15:54.709Z,14.80
2022-10-02T16:20:56.357Z,14.70
2022-10-02T16:26:17.410Z,14.60
2022-10-02T16:31:31.037Z,14.50
2022-10-02T16:36:34.834Z,14.40
2022-10-02T16:42:23.806Z,14.30
2022-10-02T16:47:42.349Z,14.10
2022-10-02T16:52:53.734Z,14.10
2022-10-02T16:58:15.629Z,14.00
2022-10-02T17:03:41.462Z,14.10
2022-10-02T17:09:02.535Z,14.20
2022-10-02T17:13:55.359Z,14.40
2022-10-02T17:19:17.593Z,14.60
2022-10-02T17:24:32.236Z,14.60
2022-10-02T17:29:56.676Z,14.50
2022-10-02T17:35:29.181Z,14.60
2022-10-02T17:40:53.802Z,14.50
2022-10-02T17:45:58.948Z,14.40
2022-10-02T17:51:47.158Z,14.10
2022-10-02T17:56:52.348Z,13.90
2022-10-02T18:01:53.539Z,13.80
2022-10-02T18:07:12.617Z,13.60
2022-10-02T18:12:29.549Z,13.40
2022-10-02T18:17:46.588Z,13.40
2022-10-02T18:23:35.009Z,13.30
2022-10-02T18:28:49.058Z,13.30
2022-10-02T18:34:30.418Z,13.30
2022-10-02T18:40:01.345Z,13.20
2022-10-02T18:45:14.124Z,13.00
2022-10-02T18:50:28.773Z,12.70
2022-10-02T18:55:44.908Z,12.60
2022-10-02T19:01:06.169Z,12.50
2022-10-02T19:06:09.276Z,12.40
2022-10-02T19:11:29.742Z,12.30
2022-10-02T19:16:39.006Z,12.10
2022-10-02T19:21:45.095Z,12.00
2022-10-02T19:26:52.214Z,12.00
2022-10-02T19:31:49.150Z,11.90
2022-10-02T19:36:54.726Z,11.80
2022-10-02T19:41:50.501Z,11.80
2022-10-02T19:47:06.895Z,12.00
2022-10-02T19:52:04.742Z,12.10
2022-10-02T19:57:09.345Z,12.00
2022-10-02T20:02:21.649Z,12.00
2022-10-02T20:07:23.496Z,11.90
2022-10-02T20:12:32.137Z,11.80
2022-10-02T20:17:25.238Z,11.70
2022-10-02T20:22:50.290Z,11.50
2022-10-02T20:27:45.834Z,11.60
2022-10-02T20:32:47.209Z,11.80
2022-10-02T20:37:43.509Z,12.00
2022-10-02T20:43:00.450Z,12.00
2022-10-02T20:48:25.591Z,12.10
2022-10-02T20:53:46.597Z,12.00
2022-10-02T20:58:53.720Z,11.90
2022-10-02T21:04:21.399Z,11.80
2022-10-02T21:09:50.553Z,11.70
2022-10-02T21:14:57.587Z,11.60
2022-10-02T21:20:27.814Z,11.60
2022-10-02T21:25:59.897Z,11.60
2022-10-02T21:31:10.829Z,11.60
2022-10-02T21:36:09.852Z,11.60
2022-10-02T21:41:37.900Z,11.60
2022-10-02T21:46:54.938Z,11.60
2022-10-02T21:51:59.374Z,11.70
2022-10-02T21:57:25.811Z,11.80
2022-10-02T22:03:11.675Z,11.80
2022-10-02T22:08:18.303Z,11.80
2022-10-02T22:13:27.886Z,11.60
2022-10-02T22:18:33.830Z,11.50
2022-10-02T22:23:57.601Z,11.50
2022-10-02T22:29:00.325Z,11.50
2022-10-02T22:34:36.803Z,11.60
2022-10-02T22:39:33.810Z,11.70
2022-10-02T22:44:39.181Z,11.70
2022-10-02T22:49:55.672Z,11.60
2022-10-02T22:55:00.717Z,11.60
2022-10-02T23:00:00.111Z,11.50
2022-10-02T23:05:01.639Z,11.30
2022-10-02T23:10:00.635Z,11.20
2022-10-02T23:15:03.786Z,11.10
2022-10-02T23:20:18.099Z,11.00
2022-10-02T23:25:30.792Z,10.90
2022-10-02T23:30:23.834Z,10.80
2022-10-02T23:35:36.348Z,10.80
2022-10-02T23:40:55.132Z,10.80
2022-10-02T23:45:55.056Z,10.80
2022-10-02T23:51:13.435Z,10.70
2022-10-02T23:56:32.173Z,10.70
